createdAt,value
2023-04-02T00:00:53.801Z,1.40
2023-04-02T00:01:53.726Z,1.50
2023-04-02T00:02:53.628Z,1.90
2023-04-02T00:08:22.023Z,2.00
2023-04-02T00:09:21.999Z,1.50
2023-04-02T00:10:21.947Z,1.90
2023-04-02T00:11:21.969Z,1.60
2023-04-02T00:12:21.897Z,1.70
2023-04-02T00:32:27.882Z,1.30
2023-04-02T00:33:27.894Z,1.90
2023-04-02T00:34:27.873Z,2.10
2023-04-02T00:35:27.778Z,1.90
2023-04-02T00:36:27.770Z,1.80
2023-04-02T00:37:27.770Z,1.90
2023-04-02T00:38:27.756Z,2.60
2023-04-02T00:39:27.684Z,2.00
2023-04-02T00:40:27.747Z,2.10
2023-04-02T00:41:27.770Z,2.00
2023-04-02T00:42:27.681Z,2.20
2023-04-02T00:43:27.700Z,2.20
2023-04-02T00:44:27.662Z,2.10
2023-04-02T00:45:27.613Z,1.90
2023-04-02T00:46:27.711Z,1.90
2023-04-02T00:47:27.669Z,1.80
2023-04-02T00:48:27.640Z,2.10
2023-04-02T00:49:27.600Z,2.10
2023-04-02T00:50:27.682Z,1.80
2023-04-02T00:51:27.584Z,1.80
2023-04-02T00:52:27.652Z,2.00
2023-04-02T00:53:27.531Z,1.80
2023-04-02T00:54:27.542Z,1.90
2023-04-02T00:55:27.524Z,1.90
2023-04-02T00:56:27.510Z,2.00
2023-04-02T00:57:27.598Z,2.00
2023-04-02T00:58:27.504Z,2.00
2023-04-02T00:59:27.458Z,2.10
2023-04-02T01:00:27.463Z,2.30
2023-04-02T01:01:27.572Z,2.30
2023-04-02T01:02:27.494Z,2.50
2023-04-02T01:03:28.758Z,2.40
2023-04-02T01:04:28.562Z,2.40
2023-04-02T01:05:28.576Z,2.30
2023-04-02T01:06:28.596Z,2.60
2023-04-02T01:07:28.573Z,2.20
2023-04-02T01:08:28.503Z,2.40
2023-04-02T01:09:28.547Z,2.30
2023-04-02T01:10:28.568Z,2.50
2023-04-02T01:11:28.532Z,2.40
2023-04-02T01:12:28.557Z,2.20
2023-04-02T01:13:28.536Z,2.60
2023-04-02T01:14:28.492Z,2.30
2023-04-02T01:15:28.432Z,2.50
2023-04-02T01:16:28.538Z,2.30
2023-04-02T01:17:28.512Z,2.20
2023-04-02T01:18:28.454Z,2.20
2023-04-02T01:19:28.427Z,2.10
2023-04-02T01:20:28.463Z,2.00
2023-04-02T01:21:28.375Z,2.20
2023-04-02T01:22:28.336Z,2.10
2023-04-02T01:23:28.413Z,2.20
2023-04-02T01:24:28.328Z,2.10
2023-04-02T01:25:28.356Z,2.20
2023-04-02T01:26:28.314Z,2.20
2023-04-02T01:27:28.314Z,2.20
2023-04-02T01:28:28.439Z,2.10
2023-04-02T01:29:28.447Z,2.30
2023-04-02T01:30:28.236Z,2.30
2023-04-02T01:31:28.240Z,2.30
2023-04-02T01:32:28.295Z,2.50
2023-04-02T01:33:28.270Z,2.50
2023-04-02T01:34:28.196Z,2.40
2023-04-02T01:35:28.160Z,2.50
2023-04-02T01:36:28.158Z,2.40
2023-04-02T01:37:28.144Z,2.30
2023-04-02T01:38:28.194Z,2.30
2023-04-02T01:39:28.113Z,2.30
2023-04-02T01:40:28.144Z,2.30
2023-04-02T01:41:28.100Z,2.40
2023-04-02T01:42:28.103Z,2.40
2023-04-02T01:43:28.079Z,2.30
2023-04-02T01:44:28.098Z,2.50
2023-04-02T01:45:28.049Z,2.30
2023-04-02T01:46:28.092Z,2.60
2023-04-02T01:47:28.044Z,2.50
2023-04-02T01:48:28.049Z,2.70
2023-04-02T01:49:28.036Z,2.50
2023-04-02T01:50:29.010Z,2.60
2023-04-02T01:51:27.992Z,2.40
2023-04-02T01:52:27.961Z,2.70
2023-04-02T01:53:27.976Z,2.80
2023-04-02T01:54:27.945Z,2.80
2023-04-02T01:55:27.976Z,2.60
2023-04-02T01:56:27.939Z,2.60
2023-04-02T01:57:27.946Z,2.70
2023-04-02T01:58:27.906Z,2.70
2023-04-02T01:59:28.070Z,2.70
2023-04-02T02:00:28.021Z,2.50
2023-04-02T02:01:27.881Z,2.50
2023-04-02T02:02:27.935Z,2.80
2023-04-02T02:03:27.845Z,2.70
2023-04-02T02:04:27.870Z,2.70
2023-04-02T02:05:27.823Z,2.80
2023-04-02T02:06:27.844Z,2.80
2023-04-02T02:07:27.821Z,2.70
2023-04-02T02:08:27.804Z,2.70
2023-04-02T02:09:27.782Z,2.80
2023-04-02T02:10:27.773Z,2.70
2023-04-02T02:11:27.794Z,2.70
2023-04-02T02:12:27.758Z,2.60
2023-04-02T02:13:27.750Z,2.70
2023-04-02T02:14:27.739Z,2.40
2023-04-02T02:15:28.097Z,2.60
2023-04-02T02:16:27.773Z,3.00
2023-04-02T02:17:27.774Z,2.60
2023-04-02T02:18:27.712Z,2.60
2023-04-02T02:19:27.672Z,2.20
2023-04-02T02:20:27.672Z,2.50
2023-04-02T02:21:27.716Z,2.50
2023-04-02T02:22:27.650Z,2.00
2023-04-02T02:23:27.632Z,2.30
2023-04-02T02:24:27.917Z,2.30
2023-04-02T02:25:27.625Z,2.30
2023-04-02T02:26:27.596Z,2.30
2023-04-02T02:27:27.628Z,2.30
2023-04-02T02:28:27.570Z,2.20
2023-04-02T02:29:27.564Z,2.50
2023-04-02T02:30:27.558Z,2.30
2023-04-02T02:31:27.542Z,2.60
2023-04-02T02:32:27.593Z,2.50
2023-04-02T02:33:27.534Z,2.80
2023-04-02T02:34:27.507Z,2.70
2023-04-02T02:35:27.483Z,2.70
2023-04-02T02:36:27.544Z,2.60
2023-04-02T02:37:27.466Z,2.40
2023-04-02T02:38:27.481Z,2.50
2023-04-02T02:39:27.483Z,2.20
2023-04-02T02:40:27.442Z,2.20
2023-04-02T02:41:27.443Z,2.20
2023-04-02T02:42:27.420Z,2.30
2023-04-02T02:43:27.470Z,2.20
2023-04-02T02:44:27.424Z,2.10
2023-04-02T02:45:27.374Z,2.20
2023-04-02T02:46:27.403Z,2.30
2023-04-02T02:47:27.410Z,2.10
2023-04-02T02:48:27.397Z,2.20
2023-04-02T02:49:27.339Z,2.20
2023-04-02T02:50:27.317Z,2.10
2023-04-02T02:51:27.341Z,2.10
2023-04-02T02:52:27.291Z,2.20
2023-04-02T02:53:27.291Z,1.90
2023-04-02T02:54:27.297Z,2.20
2023-04-02T02:55:27.282Z,2.30
2023-04-02T02:56:27.262Z,2.30
2023-04-02T02:57:27.258Z,2.10
2023-04-02T02:58:27.232Z,2.10
2023-04-02T02:59:27.291Z,2.40
2023-04-02T03:00:27.216Z,3.20
2023-04-02T03:01:27.302Z,2.00
2023-04-02T03:02:27.248Z,2.30
2023-04-02T03:03:27.250Z,2.30
2023-04-02T03:04:27.207Z,1.80
2023-04-02T03:05:27.174Z,2.20
2023-04-02T03:06:27.148Z,2.20
2023-04-02T03:07:27.166Z,2.10
2023-04-02T03:08:27.122Z,2.10
2023-04-02T03:09:27.400Z,2.00
2023-04-02T03:10:27.776Z,1.90
2023-04-02T03:11:27.101Z,2.00
2023-04-02T03:12:27.079Z,2.40
2023-04-02T03:13:27.051Z,2.10
2023-04-02T03:14:27.053Z,2.20
2023-04-02T03:15:27.071Z,2.10
2023-04-02T03:16:27.170Z,2.00
2023-04-02T03:17:27.036Z,2.00
2023-04-02T03:18:27.013Z,2.10
2023-04-02T03:19:27.595Z,2.10
2023-04-02T03:20:27.006Z,2.00
2023-04-02T03:21:26.974Z,2.10
2023-04-02T03:22:26.969Z,2.10
2023-04-02T03:23:26.947Z,1.90
2023-04-02T03:24:26.934Z,2.10
2023-04-02T03:25:26.954Z,2.10
2023-04-02T03:26:26.931Z,2.00
2023-04-02T03:27:26.897Z,2.20
2023-04-02T03:28:26.916Z,2.10
2023-04-02T03:29:26.884Z,2.10
2023-04-02T03:30:26.929Z,2.10
2023-04-02T03:31:26.919Z,2.30
2023-04-02T03:32:26.899Z,2.10
2023-04-02T03:33:26.837Z,2.30
2023-04-02T03:34:26.846Z,2.30
2023-04-02T03:35:26.848Z,2.30
2023-04-02T03:36:26.803Z,2.30
2023-04-02T03:37:26.793Z,2.50
2023-04-02T03:38:26.779Z,2.30
2023-04-02T03:39:26.823Z,2.40
2023-04-02T03:40:26.765Z,2.70
2023-04-02T03:41:26.758Z,2.80
2023-04-02T03:42:26.748Z,2.80
2023-04-02T03:43:26.728Z,2.70
2023-04-02T03:44:26.729Z,2.90
2023-04-02T03:45:26.695Z,3.20
2023-04-02T03:46:26.740Z,2.70
2023-04-02T03:47:26.741Z,3.00
2023-04-02T03:48:26.676Z,3.00
2023-04-02T03:49:26.655Z,3.10
2023-04-02T03:50:26.667Z,3.10
2023-04-02T03:51:26.652Z,3.20
2023-04-02T03:52:26.676Z,3.30
2023-04-02T03:53:26.650Z,3.50
2023-04-02T03:54:26.685Z,3.20
2023-04-02T03:55:26.650Z,3.50
2023-04-02T03:56:26.686Z,3.40
2023-04-02T03:57:26.605Z,3.90
2023-04-02T03:58:26.556Z,3.70
2023-04-02T03:59:26.548Z,3.40
2023-04-02T04:00:26.526Z,4.00
2023-04-02T04:01:26.564Z,3.90
2023-04-02T04:02:26.626Z,3.70
2023-04-02T04:03:26.484Z,3.60
2023-04-02T04:04:26.538Z,3.90
2023-04-02T04:05:26.482Z,4.10
2023-04-02T04:06:26.460Z,4.20
2023-04-02T04:07:26.486Z,4.40
2023-04-02T04:08:26.428Z,4.20
2023-04-02T04:09:26.435Z,4.00
2023-04-02T04:10:26.430Z,3.90
2023-04-02T04:11:26.448Z,3.90
2023-04-02T04:12:26.437Z,3.80
2023-04-02T04:13:26.405Z,4.10
2023-04-02T04:14:26.377Z,4.10
2023-04-02T04:15:26.360Z,4.40
2023-04-02T04:16:26.414Z,4.10
2023-04-02T04:17:26.362Z,4.10
2023-04-02T04:18:26.320Z,4.20
2023-04-02T04:19:26.330Z,3.70
2023-04-02T04:20:26.328Z,3.70
2023-04-02T04:21:26.314Z,4.00
2023-04-02T04:22:26.341Z,3.60
2023-04-02T04:23:26.265Z,4.30
2023-04-02T04:24:26.276Z,4.10
2023-04-02T04:25:26.237Z,4.40
2023-04-02T04:26:26.234Z,4.40
2023-04-02T04:27:26.243Z,4.40
2023-04-02T04:28:26.209Z,3.90
2023-04-02T04:29:26.193Z,4.00
2023-04-02T04:30:26.189Z,3.80
2023-04-02T04:31:26.242Z,3.80
2023-04-02T04:32:26.181Z,3.50
2023-04-02T04:33:26.183Z,3.60
2023-04-02T04:34:26.154Z,3.50
2023-04-02T04:35:26.146Z,3.30
2023-04-02T04:36:26.106Z,3.60
2023-04-02T04:37:27.096Z,3.50
2023-04-02T04:38:26.122Z,4.20
2023-04-02T04:39:26.074Z,3.50
2023-04-02T04:40:26.064Z,4.00
2023-04-02T04:41:26.066Z,3.80
2023-04-02T04:42:26.042Z,3.80
2023-04-02T04:43:26.096Z,3.80
2023-04-02T04:44:26.035Z,4.00
2023-04-02T04:45:26.009Z,4.30
2023-04-02T04:46:26.076Z,3.70
2023-04-02T04:47:26.019Z,4.30
2023-04-02T04:48:25.981Z,3.90
2023-04-02T04:49:25.995Z,4.10
2023-04-02T04:50:25.947Z,4.30
2023-04-02T04:51:25.938Z,4.50
2023-04-02T04:52:25.945Z,4.00
2023-04-02T04:53:25.925Z,4.80
2023-04-02T04:54:25.945Z,4.40
2023-04-02T04:55:25.900Z,3.90
2023-04-02T04:56:25.884Z,4.40
2023-04-02T04:57:25.892Z,4.30
2023-04-02T04:58:25.874Z,4.60
2023-04-02T04:59:25.889Z,4.80
2023-04-02T05:00:25.844Z,4.90
2023-04-02T05:01:25.843Z,5.30
2023-04-02T05:02:25.816Z,5.00
2023-04-02T05:03:25.818Z,4.90
2023-04-02T05:04:25.822Z,5.10
2023-04-02T05:05:25.804Z,5.60
2023-04-02T05:06:25.771Z,5.80
2023-04-02T05:07:25.767Z,6.00
2023-04-02T05:08:25.750Z,6.20
2023-04-02T05:09:25.899Z,6.30
2023-04-02T05:10:25.736Z,6.30
2023-04-02T05:11:25.715Z,6.70
2023-04-02T05:12:25.696Z,6.50
2023-04-02T05:13:25.699Z,6.60
2023-04-02T05:14:25.679Z,7.90
2023-04-02T05:15:25.704Z,6.80
2023-04-02T05:16:25.702Z,8.10
2023-04-02T05:17:25.683Z,6.40
2023-04-02T05:18:25.726Z,7.70
2023-04-02T05:19:25.628Z,7.10
2023-04-02T05:20:25.649Z,8.00
2023-04-02T05:21:25.604Z,7.50
2023-04-02T05:22:25.590Z,7.40
2023-04-02T05:23:25.577Z,7.10
2023-04-02T05:24:25.570Z,7.80
2023-04-02T05:25:25.567Z,7.30
2023-04-02T05:26:25.557Z,7.30
2023-04-02T05:27:25.531Z,8.20
2023-04-02T05:28:25.530Z,7.30
2023-04-02T05:29:25.511Z,7.70
2023-04-02T05:30:25.497Z,7.80
2023-04-02T05:31:25.566Z,7.80
2023-04-02T05:32:25.491Z,8.70
2023-04-02T05:33:25.465Z,7.70
2023-04-02T05:34:25.457Z,7.60
2023-04-02T05:35:25.448Z,7.60
2023-04-02T05:36:25.509Z,7.70
2023-04-02T05:37:25.437Z,8.50
2023-04-02T05:38:25.413Z,7.60
2023-04-02T05:39:25.412Z,8.00
2023-04-02T05:40:25.399Z,8.70
2023-04-02T05:41:25.381Z,8.10
2023-04-02T05:42:25.384Z,7.40
2023-04-02T05:43:25.356Z,7.10
2023-04-02T05:44:25.355Z,6.90
2023-04-02T05:45:25.328Z,7.50
2023-04-02T05:46:25.331Z,6.70
2023-04-02T05:47:25.356Z,7.70
2023-04-02T05:48:25.313Z,7.30
2023-04-02T05:49:25.281Z,6.70
2023-04-02T05:50:25.259Z,7.30
2023-04-02T05:51:25.265Z,7.90
2023-04-02T05:52:25.311Z,7.40
2023-04-02T05:53:25.245Z,7.90
2023-04-02T05:54:25.225Z,7.10
2023-04-02T05:55:26.856Z,7.00
2023-04-02T05:56:25.198Z,7.40
2023-04-02T05:57:39.401Z,7.50
2023-04-02T05:59:26.194Z,7.30
2023-04-02T06:00:25.178Z,8.00
2023-04-02T06:01:25.156Z,7.20
2023-04-02T06:02:25.235Z,7.10
2023-04-02T06:03:25.184Z,7.60
2023-04-02T06:04:25.591Z,7.30
2023-04-02T06:05:25.097Z,7.00
2023-04-02T06:06:25.091Z,7.20
2023-04-02T06:07:25.069Z,6.90
2023-04-02T06:08:25.089Z,6.70
2023-04-02T06:09:25.047Z,7.30
2023-04-02T06:10:25.106Z,6.50
2023-04-02T06:11:25.027Z,6.20
2023-04-02T06:12:25.021Z,6.50
2023-04-02T06:13:25.425Z,7.10
2023-04-02T06:14:25.008Z,6.70
2023-04-02T06:15:24.984Z,6.70
2023-04-02T06:16:24.998Z,7.70
2023-04-02T06:17:25.050Z,6.80
2023-04-02T06:18:24.966Z,8.30
2023-04-02T06:19:24.932Z,6.10
2023-04-02T06:20:24.941Z,10.40
2023-04-02T06:21:24.937Z,15.40
2023-04-02T06:22:24.896Z,7.40
2023-04-02T06:23:24.944Z,16.40
2023-04-02T06:24:24.956Z,7.30
2023-04-02T06:25:24.857Z,7.50
2023-04-02T06:26:24.861Z,6.50
2023-04-02T06:27:24.836Z,26.50
2023-04-02T06:28:25.876Z,19.10
2023-04-02T06:29:24.821Z,19.90
2023-04-02T06:30:24.809Z,19.60
2023-04-02T06:31:24.829Z,19.70
2023-04-02T06:32:24.820Z,26.50
2023-04-02T06:33:24.795Z,144.90
2023-04-02T06:34:24.777Z,126.30
2023-04-02T06:35:24.763Z,206.30
2023-04-02T06:36:24.831Z,76.00
2023-04-02T06:37:24.762Z,36.50
2023-04-02T06:38:24.740Z,32.10
2023-04-02T06:39:24.723Z,59.80
2023-04-02T06:40:24.707Z,78.70
2023-04-02T06:41:24.687Z,134.80
2023-04-02T06:42:24.667Z,30.20
2023-04-02T06:43:24.687Z,22.80
2023-04-02T06:44:24.677Z,16.90
2023-04-02T06:45:24.648Z,24.00
2023-04-02T06:46:24.689Z,44.60
2023-04-02T06:47:24.739Z,169.80
2023-04-02T06:48:24.615Z,354.40
2023-04-02T06:49:24.617Z,12.10
2023-04-02T06:50:24.587Z,153.00
2023-04-02T06:51:24.566Z,122.40
2023-04-02T06:52:24.566Z,95.80
2023-04-02T06:53:24.714Z,56.50
2023-04-02T06:54:24.588Z,71.10
2023-04-02T06:55:24.579Z,49.10
2023-04-02T06:56:24.522Z,87.50
2023-04-02T06:57:24.516Z,102.80
2023-04-02T06:58:24.517Z,101.80
2023-04-02T06:59:25.299Z,157.40
2023-04-02T07:00:24.455Z,98.10
2023-04-02T07:01:24.492Z,106.00
2023-04-02T07:02:24.452Z,26.10
2023-04-02T07:03:24.448Z,46.10
2023-04-02T07:04:24.497Z,73.20
2023-04-02T07:05:24.408Z,17.90
2023-04-02T07:06:24.420Z,18.00
2023-04-02T07:07:24.394Z,18.10
2023-04-02T07:08:25.191Z,24.40
2023-04-02T07:09:24.358Z,20.70
2023-04-02T07:10:24.387Z,151.30
2023-04-02T07:11:24.342Z,82.10
2023-04-02T07:12:24.328Z,110.50
2023-04-02T07:13:24.328Z,41.00
2023-04-02T07:14:24.336Z,43.50
2023-04-02T07:15:24.293Z,31.30
2023-04-02T07:16:24.328Z,52.80
2023-04-02T07:17:24.312Z,33.00
2023-04-02T07:18:24.283Z,19.10
2023-04-02T07:19:24.278Z,17.20
2023-04-02T07:20:24.309Z,12.10
2023-04-02T07:21:24.230Z,18.30
2023-04-02T07:22:24.243Z,7.40
2023-04-02T07:23:24.205Z,6.50
2023-04-02T07:24:24.186Z,27.50
2023-04-02T07:25:24.202Z,14.20
2023-04-02T07:26:24.161Z,20.60
2023-04-02T07:27:24.160Z,8.10
2023-04-02T07:28:24.191Z,15.10
2023-04-02T07:29:24.135Z,5.20
2023-04-02T07:30:24.154Z,13.80
2023-04-02T07:31:24.210Z,19.80
2023-04-02T07:32:24.087Z,18.60
2023-04-02T07:33:24.083Z,19.20
2023-04-02T07:34:24.073Z,12.00
2023-04-02T07:35:24.111Z,6.90
2023-04-02T07:36:24.079Z,11.70
2023-04-02T07:37:24.036Z,5.70
2023-04-02T07:38:24.046Z,7.50
2023-04-02T07:39:24.030Z,7.50
2023-04-02T07:40:24.090Z,7.40
2023-04-02T07:41:24.029Z,8.20
2023-04-02T07:42:24.019Z,9.70
2023-04-02T07:43:23.972Z,4.80
2023-04-02T07:44:23.981Z,6.90
2023-04-02T07:45:23.983Z,4.70
2023-04-02T07:46:23.985Z,7.10
2023-04-02T07:47:23.925Z,5.60
2023-04-02T07:48:23.929Z,5.20
2023-04-02T07:49:23.906Z,9.60
2023-04-02T07:50:23.880Z,5.60
2023-04-02T07:51:23.924Z,6.80
2023-04-02T07:52:23.859Z,22.30
2023-04-02T07:53:23.858Z,5.30
2023-04-02T07:54:23.833Z,4.10
2023-04-02T07:55:23.851Z,3.90
2023-04-02T07:56:23.882Z,3.70
2023-04-02T07:57:23.891Z,5.20
2023-04-02T07:58:23.803Z,4.90
2023-04-02T07:59:23.780Z,4.20
2023-04-02T08:00:23.798Z,4.50
2023-04-02T08:01:23.823Z,5.30
2023-04-02T08:02:23.831Z,4.30
2023-04-02T08:03:23.792Z,5.50
2023-04-02T08:04:23.760Z,4.40
2023-04-02T08:05:23.722Z,9.70
2023-04-02T08:06:23.828Z,6.50
2023-04-02T08:07:23.718Z,5.40
2023-04-02T08:08:23.870Z,6.70
2023-04-02T08:09:23.682Z,8.90
2023-04-02T08:10:23.666Z,6.40
2023-04-02T08:11:23.644Z,9.20
2023-04-02T08:12:23.669Z,7.80
2023-04-02T08:13:23.630Z,4.80
2023-04-02T08:14:23.591Z,6.60
2023-04-02T08:15:23.590Z,11.70
2023-04-02T08:16:23.612Z,12.20
2023-04-02T08:17:23.647Z,4.50
2023-04-02T08:18:23.572Z,15.80
2023-04-02T08:19:23.535Z,16.60
2023-04-02T08:20:23.520Z,10.80
2023-04-02T08:21:23.522Z,25.40
2023-04-02T08:22:23.524Z,13.50
2023-04-02T08:23:23.548Z,9.70
2023-04-02T08:24:23.489Z,17.20
2023-04-02T08:25:23.460Z,8.80
2023-04-02T08:26:23.454Z,6.30
2023-04-02T08:27:23.452Z,10.10
2023-04-02T08:28:23.523Z,9.70
2023-04-02T08:29:23.449Z,8.80
2023-04-02T08:30:23.427Z,12.60
2023-04-02T08:31:23.466Z,10.10
2023-04-02T08:32:23.410Z,12.20
2023-04-02T08:33:23.425Z,5.10
2023-04-02T08:34:23.361Z,5.60
2023-04-02T08:35:23.350Z,8.20
2023-04-02T08:36:23.375Z,8.90
2023-04-02T08:37:23.330Z,8.80
2023-04-02T08:38:23.333Z,10.30
2023-04-02T08:39:23.373Z,8.90
2023-04-02T08:40:23.311Z,10.10
2023-04-02T08:41:23.291Z,11.20
2023-04-02T08:42:23.268Z,10.80
2023-04-02T08:43:23.768Z,4.40
2023-04-02T08:44:23.300Z,7.60
2023-04-02T08:45:25.061Z,5.40
2023-04-02T08:46:25.281Z,4.00
2023-04-02T08:47:23.261Z,6.20
2023-04-02T08:48:23.215Z,7.80
2023-04-02T08:49:23.196Z,14.60
2023-04-02T08:50:23.207Z,18.70
2023-04-02T08:51:23.180Z,11.10
2023-04-02T08:52:23.246Z,26.90
2023-04-02T08:53:23.162Z,30.50
2023-04-02T08:54:23.131Z,56.90
2023-04-02T08:55:23.155Z,33.20
2023-04-02T08:56:23.121Z,51.20
2023-04-02T08:57:23.160Z,67.40
2023-04-02T08:58:23.394Z,6.30
2023-04-02T08:59:23.099Z,5.00
2023-04-02T09:00:23.110Z,15.90
2023-04-02T09:01:23.062Z,62.50
2023-04-02T09:02:23.123Z,121.20
2023-04-02T09:03:23.043Z,84.90
2023-04-02T09:04:23.083Z,130.50
2023-04-02T09:05:23.020Z,53.50
2023-04-02T09:06:23.027Z,52.50
2023-04-02T09:07:23.213Z,78.70
2023-04-02T09:08:22.961Z,42.50
2023-04-02T09:09:22.960Z,16.20
2023-04-02T09:10:22.956Z,46.10
2023-04-02T09:11:22.953Z,23.80
2023-04-02T09:12:22.915Z,153.00
2023-04-02T09:13:22.922Z,227.90
2023-04-02T09:14:22.896Z,106.60
2023-04-02T09:15:22.890Z,257.80
2023-04-02T09:16:22.972Z,126.50
2023-04-02T09:17:22.881Z,134.70
2023-04-02T09:18:22.949Z,179.00
2023-04-02T09:19:22.862Z,48.60
2023-04-02T09:20:22.833Z,90.10
2023-04-02T09:21:22.839Z,62.30
2023-04-02T09:22:22.841Z,111.60
2023-04-02T09:23:22.807Z,25.40
2023-04-02T09:24:22.808Z,95.70
2023-04-02T09:25:22.778Z,36.10
2023-04-02T09:26:22.755Z,36.40
2023-04-02T09:27:22.824Z,58.70
2023-04-02T09:28:22.759Z,261.60
2023-04-02T09:29:22.735Z,28.50
2023-04-02T09:30:22.717Z,86.10
2023-04-02T09:31:22.777Z,62.90
2023-04-02T09:32:22.733Z,30.60
2023-04-02T09:33:22.697Z,57.10
2023-04-02T09:34:22.693Z,43.40
2023-04-02T09:35:26.645Z,38.40
2023-04-02T09:36:23.669Z,12.40
2023-04-02T09:37:22.646Z,10.10
2023-04-02T09:38:22.647Z,16.10
2023-04-02T09:39:22.614Z,11.90
2023-04-02T09:40:22.610Z,8.80
2023-04-02T09:41:22.596Z,6.70
2023-04-02T09:42:22.596Z,9.80
2023-04-02T09:43:22.617Z,12.70
2023-04-02T09:44:22.567Z,6.00
2023-04-02T09:45:22.558Z,17.20
2023-04-02T09:46:22.591Z,15.80
2023-04-02T09:47:23.276Z,11.80
2023-04-02T09:48:22.550Z,6.40
2023-04-02T09:49:22.512Z,5.10
2023-04-02T09:50:22.491Z,5.30
2023-04-02T09:51:22.480Z,12.60
2023-04-02T09:52:22.462Z,6.50
2023-04-02T09:53:23.072Z,7.40
2023-04-02T09:54:22.466Z,5.30
2023-04-02T09:55:22.487Z,5.60
2023-04-02T09:56:22.415Z,4.60
2023-04-02T09:57:22.490Z,5.40
2023-04-02T09:58:22.405Z,4.00
2023-04-02T09:59:22.402Z,3.90
2023-04-02T10:00:31.459Z,7.30
2023-04-02T10:01:23.414Z,5.70
2023-04-02T10:02:22.921Z,5.60
2023-04-02T10:03:22.341Z,6.50
2023-04-02T10:04:24.419Z,4.30
2023-04-02T10:05:30.173Z,4.20
2023-04-02T10:06:23.302Z,6.10
2023-04-02T10:07:22.292Z,5.50
2023-04-02T10:08:22.284Z,5.00
2023-04-02T10:09:22.306Z,11.10
2023-04-02T10:10:23.906Z,11.40
2023-04-02T10:11:22.258Z,15.30
2023-04-02T10:12:22.236Z,6.90
2023-04-02T10:13:22.216Z,6.40
2023-04-02T10:14:22.221Z,8.50
2023-04-02T10:15:22.248Z,9.70
2023-04-02T10:16:23.347Z,26.70
2023-04-02T10:17:22.251Z,62.80
2023-04-02T10:18:22.158Z,16.90
2023-04-02T10:19:22.157Z,19.20
2023-04-02T10:20:22.241Z,14.90
2023-04-02T10:21:22.137Z,33.10
2023-04-02T10:22:23.137Z,49.50
2023-04-02T10:23:22.123Z,21.10
2023-04-02T10:24:22.110Z,16.10
2023-04-02T10:25:22.092Z,59.80
2023-04-02T10:26:22.088Z,22.10
2023-04-02T10:27:22.073Z,15.20
2023-04-02T10:28:22.054Z,6.20
2023-04-02T10:29:57.424Z,8.20
2023-04-02T10:30:22.508Z,6.50
2023-04-02T10:31:22.827Z,8.00
2023-04-02T10:32:24.898Z,12.40
2023-04-02T10:33:22.089Z,10.90
2023-04-02T10:34:22.014Z,11.80
2023-04-02T10:35:22.043Z,28.90
2023-04-02T10:36:22.045Z,9.70
2023-04-02T10:37:22.026Z,6.00
2023-04-02T10:38:21.965Z,7.50
2023-04-02T10:39:21.955Z,37.70
2023-04-02T10:40:21.985Z,46.10
2023-04-02T10:41:22.857Z,28.50
2023-04-02T10:42:21.956Z,11.20
2023-04-02T10:43:21.900Z,18.00
2023-04-02T10:44:21.979Z,23.40
2023-04-02T10:45:21.965Z,138.00
2023-04-02T10:46:24.465Z,7.70
2023-04-02T10:47:21.899Z,9.00
2023-04-02T10:48:21.863Z,13.60
2023-04-02T10:49:21.914Z,50.00
2023-04-02T10:50:21.865Z,42.10
2023-04-02T10:51:21.863Z,67.10
2023-04-02T10:52:22.884Z,20.20
2023-04-02T10:53:21.892Z,6.60
2023-04-02T10:54:21.791Z,24.70
2023-04-02T10:55:21.791Z,13.80
2023-04-02T10:56:21.765Z,15.00
2023-04-02T10:57:21.899Z,29.50
2023-04-02T10:58:21.782Z,10.50
2023-04-02T10:59:21.720Z,6.60
2023-04-02T11:00:21.883Z,23.60
2023-04-02T11:01:21.693Z,8.10
2023-04-02T11:02:21.683Z,8.20
2023-04-02T11:03:21.802Z,10.10
2023-04-02T11:04:21.698Z,15.30
2023-04-02T11:05:21.648Z,13.10
2023-04-02T11:06:21.657Z,5.00
2023-04-02T11:07:21.623Z,10.00
2023-04-02T11:08:21.710Z,7.00
2023-04-02T11:09:21.632Z,6.90
2023-04-02T11:10:21.583Z,90.00
2023-04-02T11:11:21.661Z,71.80
2023-04-02T11:12:21.593Z,102.00
2023-04-02T11:13:21.653Z,176.90
2023-04-02T11:14:21.563Z,117.00
2023-04-02T11:15:22.603Z,114.00
2023-04-02T11:16:21.580Z,95.10
2023-04-02T11:17:21.557Z,311.60
2023-04-02T11:18:21.519Z,305.60
2023-04-02T11:19:21.526Z,96.40
2023-04-02T11:20:21.509Z,128.10
2023-04-02T11:21:21.530Z,14.20
2023-04-02T11:22:21.513Z,74.10
2023-04-02T11:23:21.448Z,23.30
2023-04-02T11:24:21.520Z,76.40
2023-04-02T11:25:21.537Z,36.10
2023-04-02T11:26:22.448Z,9.20
2023-04-02T11:27:21.420Z,11.00
2023-04-02T11:28:21.927Z,25.60
2023-04-02T11:29:21.386Z,11.50
2023-04-02T11:30:21.416Z,8.10
2023-04-02T11:31:21.397Z,7.90
2023-04-02T11:32:21.378Z,7.80
2023-04-02T11:33:30.062Z,9.30
2023-04-02T11:34:21.523Z,5.80
2023-04-02T11:35:21.343Z,7.80
2023-04-02T11:36:21.997Z,6.10
2023-04-02T11:37:22.738Z,6.30
2023-04-02T11:38:22.117Z,6.70
2023-04-02T11:39:22.257Z,6.20
2023-04-02T11:40:22.086Z,6.90
2023-04-02T11:41:21.275Z,5.20
2023-04-02T11:42:23.764Z,8.10
2023-04-02T11:43:22.735Z,8.40
2023-04-02T11:44:22.198Z,14.70
2023-04-02T11:45:21.394Z,5.70
2023-04-02T11:46:21.486Z,10.90
2023-04-02T11:47:22.184Z,11.30
2023-04-02T11:48:21.149Z,6.00
2023-04-02T11:49:22.237Z,4.30
2023-04-02T11:50:21.222Z,5.10
2023-04-02T11:51:21.379Z,5.00
2023-04-02T11:52:22.160Z,6.60
2023-04-02T11:53:21.139Z,7.70
2023-04-02T11:54:21.105Z,7.90
2023-04-02T11:55:21.132Z,5.80
2023-04-02T11:56:21.319Z,7.40
2023-04-02T11:57:21.667Z,10.90
2023-04-02T11:58:22.104Z,8.20
2023-04-02T11:59:21.022Z,7.10
2023-04-02T12:00:21.017Z,7.50
2023-04-02T12:01:21.001Z,5.40
2023-04-02T12:02:21.125Z,7.20
2023-04-02T12:03:21.156Z,4.50
2023-04-02T12:04:20.987Z,5.70
2023-04-02T12:05:21.113Z,7.10
2023-04-02T12:06:20.962Z,5.20
2023-04-02T12:07:21.358Z,5.40
2023-04-02T12:08:20.945Z,6.30
2023-04-02T12:09:20.934Z,5.90
2023-04-02T12:10:20.923Z,8.50
2023-04-02T12:11:22.401Z,5.00
2023-04-02T12:12:22.273Z,7.40
2023-04-02T12:13:25.059Z,6.30
2023-04-02T12:14:21.234Z,6.20
2023-04-02T12:15:21.811Z,7.70
2023-04-02T12:16:21.750Z,4.60
2023-04-02T12:17:20.970Z,3.70
2023-04-02T12:18:20.885Z,4.40
2023-04-02T12:19:21.270Z,5.30
2023-04-02T12:20:21.719Z,5.60
2023-04-02T12:21:20.844Z,4.10
2023-04-02T12:22:20.772Z,6.00
2023-04-02T12:23:20.781Z,3.90
2023-04-02T12:24:20.926Z,4.50
2023-04-02T12:25:21.290Z,3.50
2023-04-02T12:26:23.053Z,4.50
2023-04-02T12:29:08.101Z,5.50
2023-04-02T12:30:08.214Z,5.30
2023-04-02T12:31:08.092Z,4.50
2023-04-02T12:32:08.029Z,4.30
2023-04-02T12:33:08.103Z,4.70
2023-04-02T12:34:07.991Z,4.50
2023-04-02T12:35:07.988Z,5.60
2023-04-02T12:36:07.971Z,4.90
2023-04-02T12:37:08.008Z,5.50
2023-04-02T12:38:18.337Z,3.50
2023-04-02T12:39:08.226Z,4.60
2023-04-02T12:40:08.132Z,3.90
2023-04-02T12:41:07.903Z,4.50
2023-04-02T12:42:07.865Z,3.80
2023-04-02T12:43:07.859Z,4.10
2023-04-02T12:44:07.868Z,4.80
2023-04-02T12:45:07.866Z,4.50
2023-04-02T12:46:07.890Z,4.30
2023-04-02T12:47:07.846Z,5.00
2023-04-02T12:48:07.879Z,3.70
2023-04-02T12:49:07.779Z,3.60
2023-04-02T12:50:07.800Z,4.80
2023-04-02T12:51:07.757Z,4.20
2023-04-02T12:52:07.799Z,4.20
2023-04-02T12:53:07.782Z,5.00
2023-04-02T12:54:07.718Z,2.70
2023-04-02T12:55:07.811Z,3.20
2023-04-02T12:56:07.729Z,3.70
2023-04-02T12:57:07.791Z,6.00
2023-04-02T12:58:07.672Z,4.10
2023-04-02T12:59:07.723Z,3.00
2023-04-02T13:00:07.668Z,4.40
2023-04-02T13:06:34.213Z,4.00
2023-04-02T13:07:34.183Z,4.30
2023-04-02T13:08:34.909Z,2.90
2023-04-02T13:09:34.171Z,4.70
2023-04-02T13:10:34.241Z,4.30
2023-04-02T13:11:34.036Z,3.70
2023-04-02T13:12:34.030Z,5.20
2023-04-02T13:13:34.016Z,3.40
2023-04-02T13:14:33.983Z,4.50
2023-04-02T13:15:34.278Z,30.00
2023-04-02T13:16:34.034Z,51.10
2023-04-02T13:17:33.964Z,18.70
2023-04-02T13:18:33.932Z,7.60
2023-04-02T13:19:34.013Z,8.20
2023-04-02T13:20:34.132Z,61.70
2023-04-02T13:21:33.929Z,12.70
2023-04-02T13:22:33.881Z,42.10
2023-04-02T13:23:33.878Z,43.10
2023-04-02T13:24:33.875Z,10.10
2023-04-02T13:25:33.843Z,4.60
2023-04-02T13:26:33.850Z,4.00
2023-04-02T13:27:33.889Z,3.60
2023-04-02T13:28:33.808Z,8.80
2023-04-02T13:29:33.819Z,2.70
2023-04-02T13:30:33.869Z,6.30
2023-04-02T13:31:33.889Z,8.30
2023-04-02T13:35:33.027Z,3.70
2023-04-02T13:36:33.008Z,3.60
2023-04-02T13:37:33.059Z,4.90
2023-04-02T13:38:32.877Z,3.90
2023-04-02T13:39:32.999Z,3.50
2023-04-02T13:40:32.961Z,3.60
2023-04-02T13:41:32.769Z,3.40
2023-04-02T13:42:32.742Z,5.30
2023-04-02T13:43:32.771Z,4.40
2023-04-02T13:44:32.760Z,3.30
2023-04-02T13:45:32.751Z,4.70